Time;durP1;ratioP1;P1;durP2;ratioP2;P2;SDS_P1;SDS_P2;PMS_P1;PMS_P2;Temp;Humidity;BMP_temperature;BMP_pressure;BME280_temperature;BME280_humidity;BME280_pressure;Samples;Min_cycle;Max_cycle;Signal;HPM_P1;HPM_P2
2024/01/04 05:31:51;;;;;;;0.10;0.10;;;9.60;88.00;;;;;;5212440;23;20048;-80
2024/01/04 05:34:17;;;;;;;0.10;0.10;;;9.60;88.20;;;;;;4904755;29;20510;-79
2024/01/04 05:36:42;;;;;;;0.10;0.10;;;9.60;88.30;;;;;;4895371;29;20387;-78
2024/01/04 05:39:10;;;;;;;0.10;0.10;;;9.70;88.30;;;;;;4901716;29;20065;-77
2024/01/04 05:41:36;;;;;;;0.10;0.10;;;9.70;88.20;;;;;;4914481;29;20035;-77
2024/01/04 05:44:01;;;;;;;0.10;0.10;;;9.70;88.20;;;;;;4886760;29;20511;-78
2024/01/04 05:46:27;;;;;;;0.10;0.10;;;9.70;88.20;;;;;;4887548;29;20032;-78
2024/01/04 05:48:53;;;;;;;0.10;0.10;;;9.70;88.20;;;;;;4890873;29;20023;-77
2024/01/04 05:51:18;;;;;;;0.10;0.10;;;9.70;88.20;;;;;;4920428;29;20028;-78
2024/01/04 05:53:44;;;;;;;0.10;0.10;;;9.80;88.10;;;;;;4892942;29;20441;-77
2024/01/04 05:56:09;;;;;;;0.10;0.10;;;9.80;88.30;;;;;;4882442;29;20037;-76
2024/01/04 05:58:35;;;;;;;0.10;0.10;;;9.80;88.30;;;;;;4883060;29;20033;-77
2024/01/04 06:01:01;;;;;;;0.20;0.10;;;9.80;88.20;;;;;;4896662;29;20102;-76
2024/01/04 06:03:26;;;;;;;0.10;0.10;;;9.80;88.20;;;;;;4900761;29;20036;-77
2024/01/04 06:05:52;;;;;;;0.10;0.10;;;9.90;88.10;;;;;;4886012;29;20051;-77
2024/01/04 06:08:17;;;;;;;0.10;0.10;;;9.90;88.20;;;;;;4920001;29;20059;-76
2024/01/04 06:10:43;;;;;;;0.10;0.10;;;9.90;88.00;;;;;;4919928;29;20133;-76
2024/01/04 06:13:09;;;;;;;0.10;0.10;;;10.00;88.10;;;;;;4869878;29;20043;-81
2024/01/04 06:15:35;;;;;;;0.10;0.10;;;10.00;88.20;;;;;;4881339;29;20027;-86
2024/01/04 06:18:00;;;;;;;0.10;0.10;;;10.00;88.20;;;;;;4880788;29;20140;-77
2024/01/04 06:20:26;;;;;;;0.10;0.10;;;10.00;88.40;;;;;;4882244;29;20393;-77
2024/01/04 06:22:52;;;;;;;0.10;0.10;;;10.10;88.20;;;;;;4882120;29;20097;-75
2024/01/04 06:25:18;;;;;;;0.20;0.20;;;10.10;88.20;;;;;;4884036;29;20017;-75
2024/01/04 06:27:44;;;;;;;0.10;0.10;;;10.10;88.20;;;;;;4893629;29;20048;-76
2024/01/04 06:30:10;;;;;;;0.10;0.10;;;10.00;88.20;;;;;;4888113;29;20021;-77
2024/01/04 06:32:35;;;;;;;0.10;0.10;;;10.10;88.30;;;;;;4884530;29;20045;-76
2024/01/04 06:35:01;;;;;;;0.10;0.10;;;10.10;88.30;;;;;;4900060;29;20032;-76
2024/01/04 06:37:28;;;;;;;0.10;0.10;;;10.10;88.30;;;;;;4900746;29;20051;-76
2024/01/04 06:39:53;;;;;;;0.10;0.10;;;10.10;88.30;;;;;;4883642;29;20032;-76
2024/01/04 06:42:20;;;;;;;0.10;0.10;;;10.10;88.30;;;;;;4919895;29;20035;-76
2024/01/04 06:44:47;;;;;;;0.10;0.10;;;10.10;88.50;;;;;;4919707;29;20031;-76
2024/01/04 06:47:14;;;;;;;0.10;0.10;;;10.10;88.40;;;;;;4919984;29;20052;-76
2024/01/04 06:49:41;;;;;;;0.00;0.00;;;10.10;88.50;;;;;;4905656;29;20097;-76
2024/01/04 06:52:08;;;;;;;0.10;0.10;;;10.00;88.60;;;;;;4895698;29;20028;-78
2024/01/04 06:54:33;;;;;;;0.10;0.10;;;10.00;88.60;;;;;;4900807;29;20032;-75
2024/01/04 06:56:59;;;;;;;0.10;0.10;;;10.00;88.80;;;;;;4894615;29;20036;-75
2024/01/04 06:59:26;;;;;;;0.10;0.10;;;10.00;88.80;;;;;;4882267;29;20540;-76
2024/01/04 07:01:52;;;;;;;0.10;0.10;;;10.00;88.70;;;;;;4884207;29;20026;-75
2024/01/04 07:04:17;;;;;;;0.10;0.10;;;10.00;88.80;;;;;;4882467;29;20459;-75
2024/01/04 07:06:43;;;;;;;0.10;0.10;;;10.00;88.90;;;;;;4899783;29;20039;-77
2024/01/04 07:09:08;;;;;;;0.10;0.10;;;9.90;88.90;;;;;;4898225;29;20116;-75
2024/01/04 07:11:34;;;;;;;0.10;0.10;;;9.90;88.90;;;;;;4884558;29;20033;-76
2024/01/04 07:14:00;;;;;;;0.10;0.10;;;9.90;88.90;;;;;;4868506;29;20111;-75
2024/01/04 07:16:26;;;;;;;0.10;0.10;;;9.90;88.90;;;;;;4885597;29;20036;-76
2024/01/04 07:18:51;;;;;;;0.10;0.10;;;9.90;88.90;;;;;;4883895;29;20037;-75
2024/01/04 07:21:17;;;;;;;0.10;0.10;;;9.90;88.80;;;;;;4869054;29;20044;-76
2024/01/04 07:23:43;;;;;;;0.10;0.10;;;9.90;88.90;;;;;;4875176;29;20041;-74
2024/01/04 07:26:08;;;;;;;0.10;0.10;;;9.90;89.00;;;;;;4885250;29;20022;-77
2024/01/04 07:28:34;;;;;;;0.10;0.10;;;9.80;89.00;;;;;;4885242;29;20025;-75
2024/01/04 07:30:59;;;;;;;0.10;0.10;;;9.90;88.90;;;;;;4890347;29;20072;-74
2024/01/04 07:33:26;;;;;;;0.10;0.10;;;9.90;89.00;;;;;;4895699;29;20523;-75
2024/01/04 07:35:52;;;;;;;0.10;0.10;;;9.90;89.00;;;;;;4898529;29;20486;-74
2024/01/04 07:38:17;;;;;;;0.10;0.10;;;9.90;89.00;;;;;;4907325;29;20115;-74
2024/01/04 07:40:43;;;;;;;0.15;0.15;;;9.90;88.90;;;;;;4892901;29;20038;-75
2024/01/04 07:43:08;;;;;;;0.10;0.10;;;10.00;88.90;;;;;;4885690;29;20043;-75
2024/01/04 07:45:36;;;;;;;0.10;0.10;;;9.90;89.00;;;;;;4891233;29;20029;-75
2024/01/04 07:48:01;;;;;;;0.10;0.10;;;9.90;89.10;;;;;;4884733;29;20037;-74
2024/01/04 07:50:27;;;;;;;0.10;0.10;;;9.90;89.30;;;;;;4911591;29;20035;-75
2024/01/04 07:52:55;;;;;;;0.10;0.10;;;9.90;89.30;;;;;;4878703;29;20527;-76
2024/01/04 07:55:21;;;;;;;0.10;0.10;;;9.80;89.40;;;;;;4860301;29;20036;-75
2024/01/04 07:57:46;;;;;;;0.10;0.10;;;9.90;89.50;;;;;;4891478;29;20088;-75
2024/01/04 08:00:13;;;;;;;0.10;0.10;;;9.90;89.50;;;;;;4900917;29;20036;-75
2024/01/04 08:02:39;;;;;;;0.10;0.10;;;9.90;89.50;;;;;;4896578;29;20068;-72
2024/01/04 08:05:05;;;;;;;0.10;0.10;;;9.90;89.40;;;;;;4898018;29;20072;-72
2024/01/04 08:07:30;;;;;;;0.10;0.10;;;9.80;89.50;;;;;;4893110;29;20092;-72
2024/01/04 08:09:56;;;;;;;0.10;0.10;;;9.90;89.60;;;;;;4900735;29;20017;-71
2024/01/04 08:12:22;;;;;;;0.10;0.10;;;9.90;89.60;;;;;;4881927;29;20028;-72
2024/01/04 08:14:47;;;;;;;0.10;0.10;;;9.80;89.50;;;;;;4884696;29;20042;-72
2024/01/04 08:17:13;;;;;;;0.10;0.10;;;9.90;89.60;;;;;;4899059;29;20033;-72
2024/01/04 08:19:39;;;;;;;0.13;0.13;;;9.90;89.50;;;;;;4900300;29;20032;-72
2024/01/04 08:22:04;;;;;;;0.10;0.10;;;9.90;89.50;;;;;;4910178;29;20028;-72
2024/01/04 08:24:30;;;;;;;0.10;0.10;;;9.90;89.50;;;;;;4892306;29;20026;-72
2024/01/04 08:26:57;;;;;;;0.10;0.10;;;9.90;89.50;;;;;;4911328;29;20372;-72
2024/01/04 08:29:23;;;;;;;0.10;0.10;;;10.00;89.40;;;;;;4892480;29;20076;-72
2024/01/04 08:31:50;;;;;;;0.10;0.10;;;10.00;89.30;;;;;;4912782;29;20068;-72
2024/01/04 08:34:15;;;;;;;0.10;0.10;;;10.10;89.40;;;;;;4891842;29;20025;-72
2024/01/04 08:36:41;;;;;;;0.10;0.10;;;10.00;89.30;;;;;;4906403;29;20085;-72
2024/01/04 08:39:07;;;;;;;0.10;0.10;;;10.10;89.40;;;;;;4910757;29;20020;-73
2024/01/04 08:41:32;;;;;;;0.10;0.10;;;10.10;89.50;;;;;;4892161;29;20040;-72
2024/01/04 08:43:58;;;;;;;0.10;0.10;;;10.00;89.50;;;;;;4895073;29;20024;-72
2024/01/04 08:46:24;;;;;;;0.10;0.10;;;10.10;89.50;;;;;;4908403;29;20067;-72
2024/01/04 08:48:49;;;;;;;0.10;0.10;;;10.00;89.50;;;;;;4893202;29;20028;-74
2024/01/04 08:51:15;;;;;;;0.10;0.10;;;10.10;89.50;;;;;;4909522;29;20325;-71
2024/01/04 08:53:41;;;;;;;0.10;0.10;;;10.10;89.50;;;;;;4907554;29;20045;-72
2024/01/04 08:56:09;;;;;;;0.20;0.20;;;10.10;89.50;;;;;;4910871;29;20028;-72
2024/01/04 08:58:35;;;;;;;0.10;0.10;;;10.10;89.50;;;;;;4903101;29;20503;-72
2024/01/04 09:01:01;;;;;;;0.15;0.15;;;10.10;89.70;;;;;;4908993;29;20040;-72
2024/01/04 09:03:26;;;;;;;0.10;0.10;;;10.20;89.60;;;;;;4887493;29;20032;-72
2024/01/04 09:05:52;;;;;;;0.20;0.20;;;10.10;89.60;;;;;;4901629;29;20075;-72
2024/01/04 09:08:18;;;;;;;0.10;0.10;;;10.20;89.60;;;;;;4902338;29;20021;-72
2024/01/04 09:10:43;;;;;;;0.10;0.10;;;10.30;89.60;;;;;;4901574;29;20033;-72
2024/01/04 09:13:09;;;;;;;0.10;0.10;;;10.30;89.40;;;;;;4885143;29;20021;-72
2024/01/04 09:15:35;;;;;;;0.10;0.10;;;10.30;89.50;;;;;;4890788;29;20096;-72
2024/01/04 09:18:01;;;;;;;0.10;0.10;;;10.40;89.40;;;;;;4883776;29;20029;-74
2024/01/04 09:20:26;;;;;;;0.10;0.10;;;10.40;89.40;;;;;;4900868;29;20036;-72
2024/01/04 09:22:52;;;;;;;0.10;0.10;;;10.40;89.50;;;;;;4897188;29;20040;-72
2024/01/04 09:25:18;;;;;;;0.10;0.10;;;10.50;89.30;;;;;;4883375;29;20029;-72
2024/01/04 09:27:44;;;;;;;0.20;0.20;;;10.50;89.40;;;;;;4885920;29;20036;-72
2024/01/04 09:30:10;;;;;;;0.10;0.10;;;10.50;89.40;;;;;;4901825;29;20021;-73
2024/01/04 09:32:36;;;;;;;0.10;0.10;;;10.50;89.30;;;;;;4901461;29;20036;-72
2024/01/04 09:35:02;;;;;;;0.10;0.10;;;10.60;89.30;;;;;;4884281;29;20504;-72
2024/01/04 09:37:28;;;;;;;0.10;0.10;;;10.60;89.40;;;;;;4884925;29;20104;-72
2024/01/04 09:39:53;;;;;;;0.10;0.10;;;10.60;89.40;;;;;;4894410;29;20040;-72
2024/01/04 09:42:22;;;;;;;0.10;0.10;;;10.60;89.50;;;;;;4883767;29;20036;-72
2024/01/04 09:44:49;;;;;;;0.10;0.10;;;10.70;89.50;;;;;;4896634;29;20027;-72
2024/01/04 09:47:17;;;;;;;0.10;0.10;;;10.70;89.60;;;;;;4884560;29;20503;-72
2024/01/04 09:49:44;;;;;;;0.10;0.10;;;10.70;89.60;;;;;;4901322;29;20024;-72
2024/01/04 09:52:09;;;;;;;0.10;0.10;;;10.70;89.60;;;;;;4888185;29;20041;-72
2024/01/04 09:54:39;;;;;;;0.10;0.10;;;10.80;89.60;;;;;;4911448;29;20037;-72
2024/01/04 09:57:08;;;;;;;0.20;0.20;;;10.80;89.60;;;;;;4901120;29;20029;-72
2024/01/04 09:59:34;;;;;;;0.10;0.10;;;10.90;89.60;;;;;;4883150;29;20462;-72
2024/01/04 10:02:02;;;;;;;0.20;0.20;;;10.90;89.50;;;;;;4901068;29;20064;-72
2024/01/04 10:04:28;;;;;;;0.10;0.10;;;11.00;89.40;;;;;;4883563;29;20089;-72
2024/01/04 10:06:59;;;;;;;0.20;0.20;;;11.00;89.50;;;;;;4903071;29;20483;-72
2024/01/04 10:09:28;;;;;;;0.10;0.10;;;11.00;89.50;;;;;;4874816;29;20512;-72
2024/01/04 10:11:57;;;;;;;0.10;0.10;;;11.10;89.50;;;;;;4898091;29;20025;-72
2024/01/04 10:14:24;;;;;;;0.10;0.10;;;11.10;89.40;;;;;;4883708;29;20041;-72
2024/01/04 10:16:50;;;;;;;0.10;0.10;;;11.10;89.40;;;;;;4901011;29;20024;-72
2024/01/04 10:19:16;;;;;;;0.10;0.10;;;11.20;89.40;;;;;;4900712;29;20040;-72
2024/01/04 10:21:41;;;;;;;0.10;0.10;;;11.20;89.30;;;;;;4905679;29;20119;-72
2024/01/04 10:24:09;;;;;;;0.10;0.10;;;11.20;89.40;;;;;;4897055;29;20037;-72
2024/01/04 10:26:35;;;;;;;0.10;0.10;;;11.30;89.30;;;;;;4896613;29;20060;-72
2024/01/04 10:29:01;;;;;;;0.10;0.10;;;11.30;89.40;;;;;;4900034;29;20029;-72
2024/01/04 10:31:27;;;;;;;0.20;0.20;;;11.30;89.20;;;;;;4894495;29;20053;-72
2024/01/04 10:34:00;;;;;;;0.10;0.10;;;11.30;89.10;;;;;;4895717;29;20091;-72
2024/01/04 10:36:29;;;;;;;0.13;0.13;;;11.50;89.20;;;;;;4893743;29;20029;-72
2024/01/04 10:38:59;;;;;;;0.10;0.10;;;11.50;89.10;;;;;;4881600;29;20044;-71
2024/01/04 10:41:28;;;;;;;0.10;0.10;;;11.50;89.30;;;;;;4909591;29;20036;-72
2024/01/04 10:44:09;;;;;;;0.10;0.10;;;11.50;89.20;;;;;;4906778;29;20166;-72
2024/01/04 10:46:36;;;;;;;0.10;0.10;;;11.60;89.30;;;;;;4869433;29;20021;-72
2024/01/04 10:49:02;;;;;;;0.10;0.10;;;11.60;89.30;;;;;;4886126;29;20021;-72
2024/01/04 10:51:31;;;;;;;0.10;0.10;;;11.60;89.30;;;;;;4895027;29;20107;-72
2024/01/04 10:54:01;;;;;;;0.10;0.10;;;11.60;89.30;;;;;;4903740;29;20104;-72
2024/01/04 10:56:32;;;;;;;0.10;0.10;;;11.70;89.30;;;;;;4885822;29;20021;-71
2024/01/04 10:58:59;;;;;;;0.10;0.10;;;11.70;89.30;;;;;;4886499;29;20028;-73
2024/01/04 11:01:25;;;;;;;0.10;0.10;;;11.80;89.20;;;;;;4904088;29;20032;-77
2024/01/04 11:03:55;;;;;;;0.10;0.10;;;11.90;89.10;;;;;;4903281;29;20032;-76
2024/01/04 11:06:23;;;;;;;0.10;0.10;;;12.00;88.80;;;;;;4887065;29;20032;-76
2024/01/04 11:08:49;;;;;;;0.10;0.10;;;12.00;88.60;;;;;;4904412;29;20032;-75
2024/01/04 11:11:16;;;;;;;0.10;0.10;;;12.00;88.70;;;;;;4898175;29;20036;-77
2024/01/04 11:13:42;;;;;;;0.10;0.10;;;12.00;88.50;;;;;;4881748;29;20404;-77
2024/01/04 11:16:19;;;;;;;0.10;0.10;;;12.00;88.60;;;;;;4886265;29;20035;-78
2024/01/04 11:18:57;;;;;;;0.10;0.10;;;12.10;88.60;;;;;;4893163;29;20459;-77
2024/01/04 11:21:57;;;;;;;0.10;0.10;;;12.00;88.60;;;;;;4901062;29;20033;-77
2024/01/04 11:24:30;;;;;;;0.10;0.10;;;12.00;88.60;;;;;;4906070;29;20029;-77
2024/01/04 11:26:58;;;;;;;0.10;0.10;;;12.00;88.50;;;;;;4883481;29;20044;-78
2024/01/04 11:29:26;;;;;;;0.10;0.10;;;12.00;88.50;;;;;;4902560;29;20485;-77
2024/01/04 11:31:53;;;;;;;0.10;0.10;;;12.20;88.60;;;;;;4903247;29;20104;-77
2024/01/04 11:34:19;;;;;;;0.10;0.10;;;12.40;88.40;;;;;;4893638;29;20037;-78
2024/01/04 11:36:45;;;;;;;0.10;0.10;;;12.60;87.80;;;;;;4885094;29;20077;-77
2024/01/04 11:39:11;;;;;;;0.22;0.20;;;12.60;87.30;;;;;;4896767;29;20028;-78
2024/01/04 11:41:37;;;;;;;0.20;0.20;;;12.60;87.50;;;;;;4902254;29;20826;-78
2024/01/04 11:44:14;;;;;;;0.10;0.10;;;12.70;87.30;;;;;;4882881;29;20477;-77
2024/01/04 11:46:42;;;;;;;0.10;0.10;;;12.70;87.10;;;;;;4893869;29;20025;-77
2024/01/04 11:49:07;;;;;;;0.00;0.00;;;12.70;87.30;;;;;;4900002;29;20040;-75
2024/01/04 11:51:40;;;;;;;0.10;0.10;;;12.60;87.00;;;;;;4902983;29;20029;-75
2024/01/04 11:54:06;;;;;;;0.10;0.10;;;12.70;87.10;;;;;;4883947;29;20092;-75
2024/01/04 11:56:32;;;;;;;0.10;0.10;;;12.60;87.10;;;;;;4896378;29;20036;-78
2024/01/04 11:59:11;;;;;;;0.10;0.10;;;12.50;87.00;;;;;;4903015;29;20028;-81
2024/01/04 12:01:39;;;;;;;0.10;0.10;;;12.40;87.10;;;;;;4901349;29;20035;-78
2024/01/04 12:04:12;;;;;;;0.10;0.10;;;12.40;87.30;;;;;;4883727;29;20038;-75
2024/01/04 12:06:39;;;;;;;0.10;0.10;;;12.50;87.10;;;;;;4896830;29;20027;-82
2024/01/04 12:09:09;;;;;;;0.10;0.10;;;12.50;86.90;;;;;;4900970;29;20538;-77
2024/01/04 12:11:43;;;;;;;0.10;0.10;;;12.70;86.50;;;;;;4902442;29;20017;-77
2024/01/04 12:14:09;;;;;;;0.10;0.10;;;12.80;86.20;;;;;;4902793;29;20065;-79
2024/01/04 12:16:38;;;;;;;0.10;0.10;;;12.90;85.90;;;;;;4901808;29;20032;-77
2024/01/04 12:19:04;;;;;;;0.10;0.10;;;12.80;85.70;;;;;;4902273;29;20060;-77
2024/01/04 12:21:30;;;;;;;0.10;0.10;;;12.80;85.60;;;;;;4895771;29;20025;-77
2024/01/04 12:23:56;;;;;;;0.10;0.10;;;12.80;85.70;;;;;;4901065;29;20032;-77
2024/01/04 12:26:23;;;;;;;0.10;0.10;;;12.80;85.90;;;;;;4902779;29;20395;-77
2024/01/04 12:28:53;;;;;;;0.10;0.10;;;12.90;85.80;;;;;;4902039;29;20036;-76
2024/01/04 12:31:23;;;;;;;0.10;0.10;;;12.90;85.80;;;;;;4890413;29;20045;-76
2024/01/04 12:33:51;;;;;;;0.00;0.00;;;12.90;85.40;;;;;;4897523;29;20033;-75
2024/01/04 12:36:23;;;;;;;0.10;0.10;;;12.90;85.20;;;;;;4902494;29;20080;-76
2024/01/04 12:38:53;;;;;;;0.10;0.10;;;12.80;85.50;;;;;;4898692;29;20040;-77
2024/01/04 12:41:27;;;;;;;0.00;0.00;;;12.80;85.70;;;;;;4915314;29;20020;-77
2024/01/04 12:43:53;;;;;;;0.10;0.10;;;12.80;86.00;;;;;;4898771;29;20067;-81
2024/01/04 12:46:20;;;;;;;0.10;0.10;;;12.70;85.90;;;;;;4902771;29;20043;-78
2024/01/04 12:48:46;;;;;;;0.10;0.10;;;12.70;86.70;;;;;;4897014;29;20029;-78
2024/01/04 12:51:14;;;;;;;0.10;0.10;;;12.50;87.20;;;;;;4890185;29;20092;-79
2024/01/04 12:53:45;;;;;;;0.10;0.10;;;12.50;87.30;;;;;;4884846;29;20037;-79
2024/01/04 12:56:15;;;;;;;0.10;0.10;;;12.40;87.90;;;;;;4901831;29;20032;-77
2024/01/04 12:58:41;;;;;;;0.10;0.10;;;12.40;88.50;;;;;;4900911;29;20100;-78
2024/01/04 13:01:07;;;;;;;0.10;0.10;;;12.30;88.80;;;;;;4886354;29;20080;-80
2024/01/04 13:03:33;;;;;;;0.00;0.00;;;12.30;88.90;;;;;;4885082;29;20084;-80
2024/01/04 13:05:59;;;;;;;0.10;0.10;;;12.30;89.10;;;;;;4887594;29;20025;-76
2024/01/04 13:08:24;;;;;;;0.10;0.10;;;12.30;88.90;;;;;;4881993;29;20583;-77
2024/01/04 13:10:50;;;;;;;0.05;0.05;;;12.30;89.10;;;;;;4884080;29;20040;-76
2024/01/04 13:13:16;;;;;;;0.10;0.10;;;12.30;89.40;;;;;;4901722;29;20480;-76
2024/01/04 13:15:42;;;;;;;0.10;0.10;;;12.30;89.30;;;;;;4884560;29;20024;-75
2024/01/04 13:18:09;;;;;;;0.05;0.05;;;12.10;90.00;;;;;;4901403;29;20021;-76
2024/01/04 13:20:34;;;;;;;0.10;0.10;;;12.00;90.50;;;;;;4899138;29;20384;-76
2024/01/04 13:23:00;;;;;;;0.10;0.10;;;11.90;90.70;;;;;;4901413;29;20033;-76
2024/01/04 13:25:26;;;;;;;0.00;0.00;;;11.90;90.80;;;;;;4896694;29;20506;-76
2024/01/04 13:27:52;;;;;;;0.10;0.10;;;12.00;90.60;;;;;;4901580;29;20032;-76
2024/01/04 13:30:18;;;;;;;0.10;0.10;;;12.10;90.20;;;;;;4897450;29;20028;-76
2024/01/04 13:32:45;;;;;;;0.10;0.10;;;12.20;90.00;;;;;;4896662;29;20404;-76
2024/01/04 13:35:11;;;;;;;0.10;0.10;;;12.30;89.90;;;;;;4899930;29;20036;-76
2024/01/04 13:37:36;;;;;;;0.10;0.10;;;12.30;89.90;;;;;;4901033;29;20039;-75
2024/01/04 13:40:02;;;;;;;0.10;0.10;;;12.30;89.80;;;;;;4892851;29;20059;-76
2024/01/04 13:42:28;;;;;;;0.10;0.10;;;12.30;89.70;;;;;;4895568;29;20032;-76
2024/01/04 13:44:53;;;;;;;0.10;0.10;;;12.20;89.30;;;;;;4880632;29;20037;-77
2024/01/04 13:47:19;;;;;;;0.10;0.10;;;12.20;89.30;;;;;;4889439;29;20084;-76
2024/01/04 13:49:45;;;;;;;0.00;0.00;;;12.20;89.50;;;;;;4901368;29;20079;-79
2024/01/04 13:52:10;;;;;;;0.10;0.10;;;12.20;89.10;;;;;;4901019;29;20032;-77
2024/01/04 13:54:36;;;;;;;0.10;0.10;;;12.20;89.10;;;;;;4866801;29;20033;-76
2024/01/04 13:57:02;;;;;;;0.10;0.10;;;12.10;89.50;;;;;;4895241;29;20025;-76
2024/01/04 13:59:32;;;;;;;0.10;0.10;;;11.90;89.60;;;;;;4883857;29;20042;-74
2024/01/04 14:01:57;;;;;;;0.10;0.10;;;11.90;90.10;;;;;;4900624;29;20025;-74
2024/01/04 14:04:23;;;;;;;0.10;0.10;;;11.90;90.30;;;;;;4900201;29;20039;-72
2024/01/04 14:06:49;;;;;;;0.10;0.10;;;11.80;90.50;;;;;;4900542;29;20029;-73
2024/01/04 14:09:17;;;;;;;0.10;0.10;;;11.80;90.60;;;;;;4882987;29;20024;-72
2024/01/04 14:11:44;;;;;;;0.10;0.10;;;11.80;90.80;;;;;;4901032;29;20016;-74
2024/01/04 14:14:12;;;;;;;0.00;0.00;;;11.90;90.80;;;;;;4876184;29;20100;-72
2024/01/04 14:16:38;;;;;;;0.10;0.10;;;11.90;90.60;;;;;;4900746;29;20055;-74
2024/01/04 14:19:04;;;;;;;0.10;0.10;;;11.80;90.50;;;;;;4898490;29;20025;-75
2024/01/04 14:21:30;;;;;;;0.10;0.10;;;11.80;90.40;;;;;;4880922;29;20043;-74
2024/01/04 14:23:56;;;;;;;0.10;0.10;;;11.80;90.70;;;;;;4900248;29;20035;-74
2024/01/04 14:26:21;;;;;;;0.10;0.10;;;11.80;90.50;;;;;;4900376;29;20020;-74
2024/01/04 14:28:47;;;;;;;0.10;0.10;;;11.80;90.60;;;;;;4873297;29;20594;-74
2024/01/04 14:31:14;;;;;;;0.10;0.10;;;11.90;90.60;;;;;;4899543;29;20051;-73
2024/01/04 14:33:40;;;;;;;0.10;0.10;;;12.00;90.30;;;;;;4898167;29;20020;-74
2024/01/04 14:36:07;;;;;;;0.10;0.10;;;12.00;90.10;;;;;;4881278;29;20168;-73
2024/01/04 14:38:33;;;;;;;0.03;0.03;;;12.00;89.90;;;;;;4899833;29;20047;-73
2024/01/04 14:41:00;;;;;;;0.10;0.10;;;12.00;90.00;;;;;;4894020;29;20469;-74
2024/01/04 14:43:25;;;;;;;0.10;0.10;;;12.00;89.80;;;;;;4911084;29;20510;-73
2024/01/04 14:45:51;;;;;;;0.10;0.10;;;12.00;89.70;;;;;;4886501;29;20108;-73
2024/01/04 14:48:17;;;;;;;0.10;0.10;;;12.20;89.60;;;;;;4881857;29;20048;-73
2024/01/04 14:50:42;;;;;;;0.10;0.10;;;12.20;89.20;;;;;;4892957;29;20044;-73
2024/01/04 14:53:09;;;;;;;0.10;0.10;;;12.30;89.30;;;;;;4879217;29;20468;-74
2024/01/04 14:55:35;;;;;;;0.10;0.10;;;12.30;89.10;;;;;;4882385;29;20499;-74
2024/01/04 14:58:01;;;;;;;0.10;0.10;;;12.40;88.80;;;;;;4890711;29;20115;-74
2024/01/04 15:00:26;;;;;;;0.10;0.10;;;12.30;88.30;;;;;;4905008;29;20028;-74
2024/01/04 15:02:52;;;;;;;0.10;0.10;;;12.30;88.40;;;;;;4898592;29;20062;-74
2024/01/04 15:05:18;;;;;;;0.10;0.10;;;12.20;88.40;;;;;;4881628;29;20061;-74
2024/01/04 15:07:44;;;;;;;0.10;0.10;;;12.30;88.50;;;;;;4894013;29;20109;-73
2024/01/04 15:10:09;;;;;;;0.10;0.10;;;12.30;88.50;;;;;;4889061;29;20036;-74
2024/01/04 15:12:36;;;;;;;0.10;0.10;;;12.40;88.40;;;;;;4900048;29;20037;-74
2024/01/04 15:15:08;;;;;;;0.10;0.10;;;12.30;88.20;;;;;;4899915;29;20035;-73
2024/01/04 15:17:34;;;;;;;0.10;0.10;;;12.30;88.10;;;;;;4896604;29;20155;-74
2024/01/04 15:20:00;;;;;;;0.10;0.10;;;12.20;88.00;;;;;;4899836;29;20043;-74
2024/01/04 15:22:26;;;;;;;0.10;0.10;;;12.30;88.10;;;;;;4882290;29;20044;-73
2024/01/04 15:24:52;;;;;;;0.10;0.10;;;12.40;88.00;;;;;;4899210;29;20107;-73
2024/01/04 15:27:17;;;;;;;0.03;0.03;;;12.40;88.00;;;;;;4881070;29;20059;-74
2024/01/04 15:29:43;;;;;;;0.10;0.10;;;12.30;88.00;;;;;;4898844;29;20036;-74
2024/01/04 15:32:11;;;;;;;0.10;0.10;;;12.40;87.90;;;;;;4902776;29;20060;-74
2024/01/04 15:34:37;;;;;;;0.10;0.10;;;12.30;87.80;;;;;;4884079;29;20033;-74
2024/01/04 15:37:06;;;;;;;0.10;0.10;;;12.30;87.50;;;;;;4897580;29;20047;-73
2024/01/04 15:39:32;;;;;;;0.10;0.10;;;12.30;87.60;;;;;;4908911;29;20592;-73
2024/01/04 15:41:59;;;;;;;0.10;0.10;;;12.30;87.20;;;;;;4886390;29;20033;-73
2024/01/04 15:44:24;;;;;;;0.10;0.10;;;12.30;87.10;;;;;;4902954;29;20392;-73
2024/01/04 15:46:50;;;;;;;0.10;0.10;;;12.30;87.00;;;;;;4900232;29;20032;-74
2024/01/04 15:49:16;;;;;;;0.08;0.08;;;12.30;87.20;;;;;;4903189;29;20111;-74
2024/01/04 15:51:44;;;;;;;0.10;0.10;;;12.20;87.10;;;;;;4902999;29;20032;-72
2024/01/04 15:54:10;;;;;;;0.10;0.10;;;12.20;87.10;;;;;;4900853;29;20043;-73
2024/01/04 15:56:36;;;;;;;0.10;0.10;;;12.20;86.50;;;;;;4902100;29;20033;-73
2024/01/04 15:59:08;;;;;;;0.10;0.10;;;12.10;85.70;;;;;;4897669;29;20096;-73
2024/01/04 16:01:35;;;;;;;0.10;0.10;;;12.00;85.80;;;;;;4884751;29;20472;-73
2024/01/04 16:04:02;;;;;;;0.10;0.10;;;11.90;85.60;;;;;;4882899;29;20081;-72
2024/01/04 16:06:27;;;;;;;0.10;0.10;;;11.90;85.40;;;;;;4889684;29;20028;-73
2024/01/04 16:08:53;;;;;;;0.10;0.10;;;11.80;85.40;;;;;;4887092;29;20033;-73
2024/01/04 16:11:19;;;;;;;0.10;0.10;;;11.80;85.60;;;;;;4884131;29;20396;-73
2024/01/04 16:13:46;;;;;;;0.00;0.00;;;11.80;85.50;;;;;;4896494;29;20160;-73
2024/01/04 16:16:12;;;;;;;0.10;0.10;;;11.60;85.10;;;;;;4892857;29;20064;-73
2024/01/04 16:18:37;;;;;;;0.10;0.10;;;11.70;85.20;;;;;;4879265;29;20057;-73
2024/01/04 16:21:09;;;;;;;0.10;0.10;;;11.70;85.00;;;;;;4911996;29;20036;-72
2024/01/04 16:23:35;;;;;;;0.10;0.10;;;11.60;85.10;;;;;;4910183;29;20053;-73
2024/01/04 16:26:01;;;;;;;0.10;0.10;;;11.60;84.70;;;;;;4885509;29;20033;-73
2024/01/04 16:28:26;;;;;;;0.10;0.10;;;11.50;84.60;;;;;;4893848;29;20138;-73
2024/01/04 16:30:52;;;;;;;0.00;0.00;;;11.50;85.00;;;;;;4893654;29;20045;-73
2024/01/04 16:33:18;;;;;;;0.10;0.10;;;11.50;84.50;;;;;;4894165;29;20428;-73
2024/01/04 16:35:44;;;;;;;0.10;0.10;;;11.60;84.40;;;;;;4886101;29;20055;-73
2024/01/04 16:38:09;;;;;;;0.10;0.10;;;11.60;84.10;;;;;;4893691;29;20165;-73
2024/01/04 16:40:35;;;;;;;0.10;0.10;;;11.60;83.30;;;;;;4892637;29;20076;-73
2024/01/04 16:43:01;;;;;;;0.10;0.10;;;11.60;83.30;;;;;;4896869;29;20077;-73
2024/01/04 16:45:26;;;;;;;0.00;0.00;;;11.60;83.40;;;;;;4881753;29;20033;-74
2024/01/04 16:47:52;;;;;;;0.10;0.10;;;11.60;83.10;;;;;;4893237;29;20037;-74
2024/01/04 16:50:18;;;;;;;0.10;0.10;;;11.50;82.40;;;;;;4884642;29;20029;-74
2024/01/04 16:52:43;;;;;;;0.10;0.10;;;11.50;82.50;;;;;;4883790;29;20037;-74
2024/01/04 16:55:09;;;;;;;0.10;0.10;;;11.50;82.00;;;;;;4887176;29;20045;-73
2024/01/04 16:57:34;;;;;;;0.00;0.00;;;11.50;82.50;;;;;;4901832;29;20028;-73
2024/01/04 17:00:00;;;;;;;0.10;0.10;;;11.50;82.40;;;;;;4894371;29;20039;-73
2024/01/04 17:02:27;;;;;;;0.10;0.10;;;11.50;82.40;;;;;;4896935;29;20040;-73
2024/01/04 17:05:00;;;;;;;0.10;0.10;;;11.40;82.30;;;;;;4883004;29;20037;-73
2024/01/04 17:07:25;;;;;;;;;;;11.30;82.40;;;;;;4902011;29;20444;-73
2024/01/04 17:09:51;;;;;;;0.10;0.10;;;11.20;82.60;;;;;;4909771;29;19939;-74
2024/01/04 17:12:17;;;;;;;0.10;0.10;;;11.20;82.80;;;;;;4908474;29;20036;-72
2024/01/04 17:14:43;;;;;;;0.10;0.10;;;11.20;82.70;;;;;;4906200;29;20036;-73
2024/01/04 17:17:09;;;;;;;0.10;0.10;;;11.20;82.50;;;;;;4912470;29;20400;-73
2024/01/04 17:19:34;;;;;;;0.10;0.10;;;11.10;82.40;;;;;;4908377;29;20033;-73
2024/01/04 17:22:03;;;;;;;0.10;0.10;;;11.20;82.30;;;;;;4906589;29;20040;-76
2024/01/04 17:24:32;;;;;;;0.10;0.10;;;11.20;81.00;;;;;;4910300;29;20471;-77
2024/01/04 17:27:00;;;;;;;0.10;0.10;;;11.20;81.20;;;;;;4908705;29;20032;-75
2024/01/04 17:29:26;;;;;;;0.10;0.10;;;11.20;81.10;;;;;;4908053;29;20024;-76
2024/01/04 17:31:52;;;;;;;0.10;0.10;;;11.10;81.10;;;;;;4884431;29;20547;-76
2024/01/04 17:34:19;;;;;;;0.10;0.10;;;11.10;80.50;;;;;;4899455;29;20040;-76
2024/01/04 17:36:46;;;;;;;0.10;0.10;;;11.00;80.90;;;;;;4896116;29;20112;-76
2024/01/04 17:39:12;;;;;;;0.10;0.10;;;11.00;81.10;;;;;;4895985;29;20033;-76
2024/01/04 17:41:40;;;;;;;0.10;0.10;;;11.00;81.30;;;;;;4916753;29;20118;-75
2024/01/04 17:44:17;;;;;;;0.10;0.10;;;11.00;81.10;;;;;;4918531;29;20024;-76
2024/01/04 17:46:43;;;;;;;0.10;0.10;;;11.00;81.30;;;;;;4897819;29;20059;-76
2024/01/04 17:49:26;;;;;;;0.10;0.10;;;11.00;82.00;;;;;;4909929;29;20021;-76
2024/01/04 17:51:53;;;;;;;0.10;0.10;;;11.00;82.20;;;;;;4903721;29;20037;-76
2024/01/04 17:54:19;;;;;;;0.10;0.10;;;10.90;81.80;;;;;;4908342;29;20399;-76
2024/01/04 17:56:45;;;;;;;0.10;0.10;;;11.00;81.70;;;;;;4907192;29;20028;-75
2024/01/04 17:59:10;;;;;;;0.10;0.10;;;10.90;81.40;;;;;;4897099;29;20039;-75
2024/01/04 18:01:36;;;;;;;0.10;0.10;;;10.80;81.70;;;;;;4895327;29;20025;-75
2024/01/04 18:04:01;;;;;;;0.10;0.10;;;10.80;82.20;;;;;;4905057;29;20416;-75
2024/01/04 18:06:27;;;;;;;0.10;0.10;;;10.70;82.10;;;;;;4897941;29;20032;-75
2024/01/04 18:08:53;;;;;;;0.00;0.00;;;10.70;82.30;;;;;;4897527;29;20017;-78
2024/01/04 18:11:19;;;;;;;0.10;0.10;;;10.60;82.40;;;;;;4897354;29;20111;-76
2024/01/04 18:13:45;;;;;;;0.03;0.03;;;10.60;82.40;;;;;;4898602;29;20067;-75
2024/01/04 18:16:11;;;;;;;0.00;0.00;;;10.60;82.20;;;;;;4900108;29;20032;-76